Aransas Pass — WDF5061 — position and weather

sailwx.info

Track history (hours):
 
Tides and Currents Weather Stations Pressure Air Temp Water Temp Dewpoint Dewpoint Depression Visibility Wind Speed Wind Dir Waves Ship Positions

Aransas Pass

Owner: Higman Barge Lines, Inc., Orange, TX. More information available from US FCC via Universal Licensing System and Coast Guard Vessel Documentation Center.

Last reported at 2016-Aug-24 02:29 UTC. Time now 2016-Aug-24 08:30 UTC.
Position N 29°30' W 094°52'.

Length 26 m; draft 3 m.

Type: Towing. MMSI: 367458930.

Date/timePositionNaut miles runAvg speedWind from/ knotsBaromVisibWave heightAir tempDewpointWater temp
2016-Aug-24 02:29N 29°30' W 094°52'7 7.1
2016-Aug-24 01:32N 29°35' W 094°56'8 7.4
2016-Aug-24 00:29N 29°42' W 095°00'6 1.4
2016-Aug-23 20:24N 29°45' W 095°07'0 0.0
2016-Aug-23 19:22N 29°45' W 095°07'0 0.0
2016-Aug-23 18:32N 29°45' W 095°07'0 0.3
2016-Aug-23 17:12N 29°45' W 095°06'0 0.5
2016-Aug-23 16:18N 29°45' W 095°07'0 0.0
2016-Aug-23 15:22N 29°45' W 095°07'0 0.0
2016-Aug-23 14:13N 29°45' W 095°07'0 0.0
2016-Aug-23 13:09N 29°45' W 095°07'1 0.2
2016-Aug-23 08:19N 29°45' W 095°06'4 4.5
2016-Aug-23 07:30N 29°45' W 095°10'0 0.0
2016-Aug-21 22:25N 29°45' W 095°10'  
2016-Aug-19 03:23N 29°45' W 095°06'0 0.1
2016-Aug-18 20:31N 29°45' W 095°07'0 0.0
2016-Aug-18 19:24N 29°45' W 095°07'0 0.0
2016-Aug-18 18:33N 29°45' W 095°07'0 0.0
2016-Aug-18 17:22N 29°45' W 095°07'0 0.0
2016-Aug-18 12:27N 29°45' W 095°07'0 0.0
2016-Aug-18 11:22N 29°45' W 095°07'0 0.0
2016-Aug-18 10:31N 29°45' W 095°07'0 0.0
2016-Aug-18 09:20N 29°45' W 095°07'0 0.0
2016-Aug-18 08:29N 29°45' W 095°07'0 0.0
2016-Aug-18 07:32N 29°45' W 095°07'0 0.0
2016-Aug-18 06:30N 29°45' W 095°07'0 0.0
2016-Aug-18 05:33N 29°45' W 095°07'0 0.0
2016-Aug-18 04:27N 29°45' W 095°07'0 0.0
2016-Aug-18 03:32N 29°45' W 095°07'0 0.0
2016-Aug-18 02:30N 29°45' W 095°07'0 0.0
2016-Aug-18 01:18N 29°45' W 095°07'2 0.4
2016-Aug-17 20:33N 29°46' W 095°05'6 6.0
2016-Aug-17 19:32N 29°42' W 094°60'7 7.1
2016-Aug-17 18:33N 29°35' W 094°56'  
Track history (hours):
 
Tides and Currents Weather Stations Pressure Air Temp Water Temp Dewpoint Dewpoint Depression Visibility Wind Speed Wind Dir Waves Ship Positions

Aransas Pass

Owner: Higman Barge Lines, Inc., Orange, TX. More information available from US FCC via Universal Licensing System and Coast Guard Vessel Documentation Center.

Last reported at 2016-Aug-24 02:29 UTC. Time now 2016-Aug-24 08:30 UTC.
Position N 29°30' W 094°52'.

Length 26 m; draft 3 m.

Type: Towing. MMSI: 367458930.

Date/timePositionNaut miles runAvg speedWind from/ knotsBaromVisibWave heightAir tempDewpointWater temp
2016-Aug-24 02:29N 29°30' W 094°52'7 7.1
2016-Aug-24 01:32N 29°35' W 094°56'8 7.4
2016-Aug-24 00:29N 29°42' W 095°00'6 1.4
2016-Aug-23 20:24N 29°45' W 095°07'0 0.0
2016-Aug-23 19:22N 29°45' W 095°07'0 0.0
2016-Aug-23 18:32N 29°45' W 095°07'0 0.3
2016-Aug-23 17:12N 29°45' W 095°06'0 0.5
2016-Aug-23 16:18N 29°45' W 095°07'0 0.0
2016-Aug-23 15:22N 29°45' W 095°07'0 0.0
2016-Aug-23 14:13N 29°45' W 095°07'0 0.0
2016-Aug-23 13:09N 29°45' W 095°07'1 0.2
2016-Aug-23 08:19N 29°45' W 095°06'4 4.5
2016-Aug-23 07:30N 29°45' W 095°10'0 0.0
2016-Aug-21 22:25N 29°45' W 095°10'  
2016-Aug-19 03:23N 29°45' W 095°06'0 0.1
2016-Aug-18 20:31N 29°45' W 095°07'0 0.0
2016-Aug-18 19:24N 29°45' W 095°07'0 0.0
2016-Aug-18 18:33N 29°45' W 095°07'0 0.0
2016-Aug-18 17:22N 29°45' W 095°07'0 0.0
2016-Aug-18 12:27N 29°45' W 095°07'0 0.0
2016-Aug-18 11:22N 29°45' W 095°07'0 0.0
2016-Aug-18 10:31N 29°45' W 095°07'0 0.0
2016-Aug-18 09:20N 29°45' W 095°07'0 0.0
2016-Aug-18 08:29N 29°45' W 095°07'0 0.0
2016-Aug-18 07:32N 29°45' W 095°07'0 0.0
2016-Aug-18 06:30N 29°45' W 095°07'0 0.0
2016-Aug-18 05:33N 29°45' W 095°07'0 0.0
2016-Aug-18 04:27N 29°45' W 095°07'0 0.0
2016-Aug-18 03:32N 29°45' W 095°07'0 0.0
2016-Aug-18 02:30N 29°45' W 095°07'0 0.0
2016-Aug-18 01:18N 29°45' W 095°07'2 0.4
2016-Aug-17 20:33N 29°46' W 095°05'6 6.0
2016-Aug-17 19:32N 29°42' W 094°60'7 7.1
2016-Aug-17 18:33N 29°35' W 094°56'  

Dump ship's entire track history